sensor_id;sensor_type;location;lat;lon;timestamp;P1;durP1;ratioP1;P2;durP2;ratioP2
76636;SDS011;65532;52.124;5.480;2023-08-30T00:01:27;9.23;;;4.88;;
76636;SDS011;65532;52.124;5.480;2023-08-30T00:03:54;9.20;;;5.07;;
76636;SDS011;65532;52.124;5.480;2023-08-30T00:06:21;8.60;;;3.90;;
76636;SDS011;65532;52.124;5.480;2023-08-30T00:08:47;8.77;;;4.57;;
76636;SDS011;65532;52.124;5.480;2023-08-30T00:11:14;8.95;;;3.88;;
76636;SDS011;65532;52.124;5.480;2023-08-30T00:13:41;8.70;;;5.00;;
76636;SDS011;65532;52.124;5.480;2023-08-30T00:16:08;8.50;;;5.18;;
76636;SDS011;65532;52.124;5.480;2023-08-30T00:18:35;7.18;;;4.63;;
76636;SDS011;65532;52.124;5.480;2023-08-30T00:21:01;8.65;;;3.75;;
76636;SDS011;65532;52.124;5.480;2023-08-30T00:23:28;7.88;;;3.50;;
76636;SDS011;65532;52.124;5.480;2023-08-30T00:25:55;5.97;;;3.00;;
76636;SDS011;65532;52.124;5.480;2023-08-30T00:28:21;8.25;;;3.72;;
76636;SDS011;65532;52.124;5.480;2023-08-30T00:30:52;8.88;;;4.20;;
76636;SDS011;65532;52.124;5.480;2023-08-30T00:33:20;7.55;;;3.88;;
76636;SDS011;65532;52.124;5.480;2023-08-30T00:35:46;7.20;;;3.80;;
76636;SDS011;65532;52.124;5.480;2023-08-30T00:38:21;8.48;;;4.03;;
76636;SDS011;65532;52.124;5.480;2023-08-30T00:40:47;7.63;;;4.38;;
76636;SDS011;65532;52.124;5.480;2023-08-30T00:43:14;8.93;;;5.10;;
76636;SDS011;65532;52.124;5.480;2023-08-30T00:45:41;7.97;;;4.07;;
76636;SDS011;65532;52.124;5.480;2023-08-30T00:48:07;9.07;;;4.95;;
76636;SDS011;65532;52.124;5.480;2023-08-30T00:50:34;7.88;;;4.18;;
76636;SDS011;65532;52.124;5.480;2023-08-30T00:53:02;7.57;;;4.70;;
76636;SDS011;65532;52.124;5.480;2023-08-30T00:55:32;9.70;;;3.30;;
76636;SDS011;65532;52.124;5.480;2023-08-30T00:58:01;8.85;;;3.25;;
76636;SDS011;65532;52.124;5.480;2023-08-30T01:00:29;7.47;;;4.47;;
76636;SDS011;65532;52.124;5.480;2023-08-30T01:02:56;6.90;;;3.60;;
76636;SDS011;65532;52.124;5.480;2023-08-30T01:05:23;7.03;;;3.78;;
76636;SDS011;65532;52.124;5.480;2023-08-30T01:07:50;6.55;;;4.07;;
76636;SDS011;65532;52.124;5.480;2023-08-30T01:10:22;6.13;;;3.10;;
76636;SDS011;65532;52.124;5.480;2023-08-30T01:13:00;7.50;;;4.15;;
76636;SDS011;65532;52.124;5.480;2023-08-30T01:15:34;8.95;;;3.75;;
76636;SDS011;65532;52.124;5.480;2023-08-30T01:18:04;7.85;;;4.50;;
76636;SDS011;65532;52.124;5.480;2023-08-30T01:20:34;9.32;;;4.40;;
76636;SDS011;65532;52.124;5.480;2023-08-30T01:23:08;7.97;;;4.35;;
76636;SDS011;65532;52.124;5.480;2023-08-30T01:28:30;7.25;;;4.78;;
76636;SDS011;65532;52.124;5.480;2023-08-30T01:30:59;8.02;;;4.38;;
76636;SDS011;65532;52.124;5.480;2023-08-30T01:33:26;8.48;;;3.45;;
76636;SDS011;65532;52.124;5.480;2023-08-30T01:35:55;6.85;;;3.17;;
76636;SDS011;65532;52.124;5.480;2023-08-30T01:38:25;8.10;;;3.58;;
76636;SDS011;65532;52.124;5.480;2023-08-30T01:40:54;7.72;;;3.55;;
76636;SDS011;65532;52.124;5.480;2023-08-30T01:43:24;10.15;;;5.32;;
76636;SDS011;65532;52.124;5.480;2023-08-30T01:45:54;7.65;;;3.40;;
76636;SDS011;65532;52.124;5.480;2023-08-30T01:48:22;6.05;;;2.58;;
76636;SDS011;65532;52.124;5.480;2023-08-30T01:50:51;8.07;;;4.80;;
76636;SDS011;65532;52.124;5.480;2023-08-30T01:53:17;7.55;;;3.67;;
76636;SDS011;65532;52.124;5.480;2023-08-30T01:55:46;8.80;;;3.50;;
76636;SDS011;65532;52.124;5.480;2023-08-30T01:58:12;6.50;;;2.97;;
76636;SDS011;65532;52.124;5.480;2023-08-30T02:00:39;8.32;;;3.47;;
76636;SDS011;65532;52.124;5.480;2023-08-30T02:03:09;8.85;;;4.07;;
76636;SDS011;65532;52.124;5.480;2023-08-30T02:05:39;8.88;;;4.60;;
76636;SDS011;65532;52.124;5.480;2023-08-30T02:08:38;9.07;;;3.95;;
76636;SDS011;65532;52.124;5.480;2023-08-30T02:11:13;8.73;;;4.75;;
76636;SDS011;65532;52.124;5.480;2023-08-30T02:13:43;10.85;;;4.10;;
76636;SDS011;65532;52.124;5.480;2023-08-30T02:16:11;11.80;;;6.20;;
76636;SDS011;65532;52.124;5.480;2023-08-30T02:18:41;9.13;;;3.80;;
76636;SDS011;65532;52.124;5.480;2023-08-30T02:21:08;12.00;;;4.78;;
76636;SDS011;65532;52.124;5.480;2023-08-30T02:23:34;10.88;;;4.40;;
76636;SDS011;65532;52.124;5.480;2023-08-30T02:26:02;10.48;;;5.80;;
76636;SDS011;65532;52.124;5.480;2023-08-30T02:28:31;10.45;;;4.15;;
76636;SDS011;65532;52.124;5.480;2023-08-30T02:30:58;10.55;;;4.85;;
76636;SDS011;65532;52.124;5.480;2023-08-30T02:33:25;11.23;;;4.00;;
76636;SDS011;65532;52.124;5.480;2023-08-30T02:35:51;8.68;;;4.32;;
76636;SDS011;65532;52.124;5.480;2023-08-30T02:38:20;9.48;;;4.80;;
76636;SDS011;65532;52.124;5.480;2023-08-30T02:40:46;8.85;;;3.85;;
76636;SDS011;65532;52.124;5.480;2023-08-30T02:43:14;8.23;;;4.75;;
76636;SDS011;65532;52.124;5.480;2023-08-30T02:45:41;9.30;;;4.20;;
76636;SDS011;65532;52.124;5.480;2023-08-30T02:48:07;10.02;;;4.78;;
76636;SDS011;65532;52.124;5.480;2023-08-30T02:50:35;10.20;;;4.20;;
76636;SDS011;65532;52.124;5.480;2023-08-30T02:53:01;11.40;;;4.72;;
76636;SDS011;65532;52.124;5.480;2023-08-30T02:55:28;10.77;;;5.57;;
76636;SDS011;65532;52.124;5.480;2023-08-30T02:57:55;11.88;;;4.57;;
76636;SDS011;65532;52.124;5.480;2023-08-30T03:00:21;10.73;;;4.35;;
76636;SDS011;65532;52.124;5.480;2023-08-30T03:02:49;8.98;;;5.72;;
76636;SDS011;65532;52.124;5.480;2023-08-30T03:05:16;10.20;;;5.65;;
76636;SDS011;65532;52.124;5.480;2023-08-30T03:07:42;11.80;;;4.22;;
76636;SDS011;65532;52.124;5.480;2023-08-30T03:10:09;9.00;;;4.07;;
76636;SDS011;65532;52.124;5.480;2023-08-30T03:12:36;9.90;;;4.00;;
76636;SDS011;65532;52.124;5.480;2023-08-30T03:15:03;10.85;;;4.60;;
76636;SDS011;65532;52.124;5.480;2023-08-30T03:17:31;11.63;;;4.22;;
76636;SDS011;65532;52.124;5.480;2023-08-30T03:19:58;11.13;;;5.45;;
76636;SDS011;65532;52.124;5.480;2023-08-30T03:22:25;10.32;;;5.28;;
76636;SDS011;65532;52.124;5.480;2023-08-30T03:24:52;11.32;;;4.70;;
76636;SDS011;65532;52.124;5.480;2023-08-30T03:27:19;9.25;;;5.03;;
76636;SDS011;65532;52.124;5.480;2023-08-30T03:29:46;11.23;;;4.75;;
76636;SDS011;65532;52.124;5.480;2023-08-30T03:32:16;11.52;;;4.82;;
76636;SDS011;65532;52.124;5.480;2023-08-30T03:34:44;10.20;;;6.80;;
76636;SDS011;65532;52.124;5.480;2023-08-30T03:37:13;10.80;;;6.35;;
76636;SDS011;65532;52.124;5.480;2023-08-30T03:39:40;9.40;;;3.33;;
76636;SDS011;65532;52.124;5.480;2023-08-30T03:42:07;10.57;;;5.93;;
76636;SDS011;65532;52.124;5.480;2023-08-30T03:44:35;11.65;;;5.38;;
76636;SDS011;65532;52.124;5.480;2023-08-30T03:47:05;13.63;;;5.10;;
76636;SDS011;65532;52.124;5.480;2023-08-30T03:49:32;11.38;;;5.35;;
76636;SDS011;65532;52.124;5.480;2023-08-30T03:51:58;11.25;;;5.65;;
76636;SDS011;65532;52.124;5.480;2023-08-30T03:54:25;10.90;;;6.13;;
76636;SDS011;65532;52.124;5.480;2023-08-30T03:56:52;10.50;;;4.45;;
76636;SDS011;65532;52.124;5.480;2023-08-30T03:59:18;11.10;;;4.57;;
76636;SDS011;65532;52.124;5.480;2023-08-30T04:01:45;11.25;;;5.03;;
76636;SDS011;65532;52.124;5.480;2023-08-30T04:04:12;12.77;;;6.07;;
76636;SDS011;65532;52.124;5.480;2023-08-30T04:06:38;16.08;;;6.20;;
76636;SDS011;65532;52.124;5.480;2023-08-30T04:09:06;14.88;;;5.93;;
76636;SDS011;65532;52.124;5.480;2023-08-30T04:11:32;13.65;;;5.97;;
76636;SDS011;65532;52.124;5.480;2023-08-30T04:13:59;18.58;;;6.30;;
76636;SDS011;65532;52.124;5.480;2023-08-30T04:16:25;13.20;;;6.50;;
76636;SDS011;65532;52.124;5.480;2023-08-30T04:18:52;10.43;;;5.07;;
76636;SDS011;65532;52.124;5.480;2023-08-30T04:21:19;13.35;;;5.30;;
76636;SDS011;65532;52.124;5.480;2023-08-30T04:23:46;15.02;;;5.00;;
76636;SDS011;65532;52.124;5.480;2023-08-30T04:26:12;16.48;;;5.85;;
76636;SDS011;65532;52.124;5.480;2023-08-30T04:28:39;14.07;;;5.03;;
76636;SDS011;65532;52.124;5.480;2023-08-30T04:31:06;14.68;;;6.75;;
76636;SDS011;65532;52.124;5.480;2023-08-30T04:33:33;15.75;;;5.95;;
76636;SDS011;65532;52.124;5.480;2023-08-30T04:36:02;12.88;;;4.80;;
76636;SDS011;65532;52.124;5.480;2023-08-30T04:38:31;14.68;;;4.82;;
76636;SDS011;65532;52.124;5.480;2023-08-30T04:40:58;11.02;;;6.28;;
76636;SDS011;65532;52.124;5.480;2023-08-30T04:43:32;15.02;;;4.93;;
76636;SDS011;65532;52.124;5.480;2023-08-30T04:45:59;10.20;;;4.70;;
76636;SDS011;65532;52.124;5.480;2023-08-30T04:48:26;12.82;;;6.00;;
76636;SDS011;65532;52.124;5.480;2023-08-30T04:51:03;12.85;;;5.30;;
76636;SDS011;65532;52.124;5.480;2023-08-30T04:53:30;16.25;;;5.43;;
76636;SDS011;65532;52.124;5.480;2023-08-30T04:55:57;12.80;;;4.97;;
76636;SDS011;65532;52.124;5.480;2023-08-30T04:58:26;8.35;;;3.85;;
76636;SDS011;65532;52.124;5.480;2023-08-30T05:00:54;8.38;;;5.13;;
76636;SDS011;65532;52.124;5.480;2023-08-30T05:03:23;12.73;;;5.65;;
76636;SDS011;65532;52.124;5.480;2023-08-30T05:05:49;11.07;;;4.82;;
76636;SDS011;65532;52.124;5.480;2023-08-30T05:08:16;10.20;;;4.13;;
76636;SDS011;65532;52.124;5.480;2023-08-30T05:10:43;10.27;;;4.15;;
76636;SDS011;65532;52.124;5.480;2023-08-30T05:13:09;9.73;;;4.78;;
76636;SDS011;65532;52.124;5.480;2023-08-30T05:15:36;10.80;;;4.93;;
76636;SDS011;65532;52.124;5.480;2023-08-30T05:18:03;11.98;;;4.20;;
76636;SDS011;65532;52.124;5.480;2023-08-30T05:20:30;9.93;;;4.53;;
76636;SDS011;65532;52.124;5.480;2023-08-30T05:22:57;11.10;;;4.97;;
76636;SDS011;65532;52.124;5.480;2023-08-30T05:25:24;13.00;;;4.82;;
76636;SDS011;65532;52.124;5.480;2023-08-30T05:27:50;12.45;;;5.00;;
76636;SDS011;65532;52.124;5.480;2023-08-30T05:30:18;10.30;;;3.78;;
76636;SDS011;65532;52.124;5.480;2023-08-30T05:32:44;9.40;;;6.18;;
76636;SDS011;65532;52.124;5.480;2023-08-30T05:35:20;9.60;;;5.13;;
76636;SDS011;65532;52.124;5.480;2023-08-30T05:38:25;11.80;;;5.90;;
76636;SDS011;65532;52.124;5.480;2023-08-30T05:41:06;12.50;;;4.38;;
76636;SDS011;65532;52.124;5.480;2023-08-30T05:43:33;9.68;;;4.45;;
76636;SDS011;65532;52.124;5.480;2023-08-30T05:46:03;8.88;;;5.68;;
76636;SDS011;65532;52.124;5.480;2023-08-30T05:48:30;9.98;;;4.40;;
76636;SDS011;65532;52.124;5.480;2023-08-30T05:50:57;8.48;;;5.72;;
76636;SDS011;65532;52.124;5.480;2023-08-30T05:53:23;10.85;;;4.07;;
76636;SDS011;65532;52.124;5.480;2023-08-30T05:55:50;11.35;;;4.97;;
76636;SDS011;65532;52.124;5.480;2023-08-30T05:58:17;10.15;;;4.70;;
76636;SDS011;65532;52.124;5.480;2023-08-30T06:00:44;9.00;;;5.93;;
76636;SDS011;65532;52.124;5.480;2023-08-30T06:03:11;10.70;;;4.25;;
76636;SDS011;65532;52.124;5.480;2023-08-30T06:05:37;11.63;;;5.43;;
76636;SDS011;65532;52.124;5.480;2023-08-30T06:08:04;14.45;;;6.65;;
76636;SDS011;65532;52.124;5.480;2023-08-30T06:10:30;11.75;;;5.75;;
76636;SDS011;65532;52.124;5.480;2023-08-30T06:12:57;9.07;;;4.20;;
76636;SDS011;65532;52.124;5.480;2023-08-30T06:15:23;9.82;;;3.97;;
76636;SDS011;65532;52.124;5.480;2023-08-30T06:17:50;10.77;;;4.50;;
76636;SDS011;65532;52.124;5.480;2023-08-30T06:20:17;12.73;;;5.90;;
76636;SDS011;65532;52.124;5.480;2023-08-30T06:22:43;13.05;;;5.38;;
76636;SDS011;65532;52.124;5.480;2023-08-30T06:25:11;11.57;;;5.97;;
76636;SDS011;65532;52.124;5.480;2023-08-30T06:27:40;11.05;;;6.10;;
76636;SDS011;65532;52.124;5.480;2023-08-30T06:30:09;10.18;;;4.47;;
76636;SDS011;65532;52.124;5.480;2023-08-30T06:32:36;10.63;;;5.43;;
76636;SDS011;65532;52.124;5.480;2023-08-30T06:35:03;10.52;;;4.68;;
76636;SDS011;65532;52.124;5.480;2023-08-30T06:37:30;13.52;;;5.78;;
76636;SDS011;65532;52.124;5.480;2023-08-30T06:39:56;15.20;;;6.20;;
76636;SDS011;65532;52.124;5.480;2023-08-30T06:42:23;11.02;;;5.35;;
76636;SDS011;65532;52.124;5.480;2023-08-30T06:44:51;12.07;;;5.03;;
76636;SDS011;65532;52.124;5.480;2023-08-30T06:47:17;16.90;;;6.43;;
76636;SDS011;65532;52.124;5.480;2023-08-30T06:49:44;11.25;;;4.50;;
76636;SDS011;65532;52.124;5.480;2023-08-30T06:52:10;11.77;;;5.30;;
76636;SDS011;65532;52.124;5.480;2023-08-30T06:54:37;10.43;;;6.05;;
76636;SDS011;65532;52.124;5.480;2023-08-30T06:57:04;11.15;;;5.47;;
76636;SDS011;65532;52.124;5.480;2023-08-30T06:59:32;8.40;;;5.63;;
76636;SDS011;65532;52.124;5.480;2023-08-30T07:01:59;11.27;;;4.80;;
76636;SDS011;65532;52.124;5.480;2023-08-30T07:04:25;9.85;;;4.80;;
76636;SDS011;65532;52.124;5.480;2023-08-30T07:06:52;11.63;;;6.07;;
76636;SDS011;65532;52.124;5.480;2023-08-30T07:09:19;11.27;;;6.20;;
76636;SDS011;65532;52.124;5.480;2023-08-30T07:11:48;14.07;;;5.78;;
76636;SDS011;65532;52.124;5.480;2023-08-30T07:14:15;10.27;;;4.63;;
76636;SDS011;65532;52.124;5.480;2023-08-30T07:16:41;10.15;;;5.07;;
76636;SDS011;65532;52.124;5.480;2023-08-30T07:19:08;9.68;;;4.53;;
76636;SDS011;65532;52.124;5.480;2023-08-30T07:21:36;9.70;;;4.43;;
76636;SDS011;65532;52.124;5.480;2023-08-30T07:24:05;11.63;;;4.97;;
76636;SDS011;65532;52.124;5.480;2023-08-30T07:26:35;9.07;;;3.88;;
76636;SDS011;65532;52.124;5.480;2023-08-30T07:29:02;8.93;;;4.75;;
76636;SDS011;65532;52.124;5.480;2023-08-30T07:31:31;11.38;;;4.72;;
76636;SDS011;65532;52.124;5.480;2023-08-30T07:33:58;11.35;;;4.32;;
76636;SDS011;65532;52.124;5.480;2023-08-30T07:36:26;9.25;;;4.05;;
76636;SDS011;65532;52.124;5.480;2023-08-30T07:39:12;10.13;;;5.30;;
76636;SDS011;65532;52.124;5.480;2023-08-30T07:41:39;11.02;;;4.95;;
76636;SDS011;65532;52.124;5.480;2023-08-30T07:44:05;10.85;;;4.47;;
76636;SDS011;65532;52.124;5.480;2023-08-30T07:46:32;9.55;;;4.25;;
76636;SDS011;65532;52.124;5.480;2023-08-30T07:48:58;9.40;;;4.22;;
76636;SDS011;65532;52.124;5.480;2023-08-30T07:51:25;10.55;;;4.93;;
76636;SDS011;65532;52.124;5.480;2023-08-30T07:53:51;8.82;;;3.72;;
76636;SDS011;65532;52.124;5.480;2023-08-30T07:56:18;9.93;;;4.25;;
76636;SDS011;65532;52.124;5.480;2023-08-30T07:58:44;9.05;;;3.45;;
76636;SDS011;65532;52.124;5.480;2023-08-30T08:01:11;9.18;;;4.70;;
76636;SDS011;65532;52.124;5.480;2023-08-30T08:03:38;7.85;;;2.90;;
76636;SDS011;65532;52.124;5.480;2023-08-30T08:06:14;9.20;;;5.55;;
76636;SDS011;65532;52.124;5.480;2023-08-30T08:08:41;8.77;;;3.63;;
76636;SDS011;65532;52.124;5.480;2023-08-30T08:11:07;9.30;;;5.28;;
76636;SDS011;65532;52.124;5.480;2023-08-30T08:13:34;7.40;;;4.53;;
76636;SDS011;65532;52.124;5.480;2023-08-30T08:16:01;9.93;;;4.10;;
76636;SDS011;65532;52.124;5.480;2023-08-30T08:18:27;10.20;;;4.38;;
76636;SDS011;65532;52.124;5.480;2023-08-30T08:20:54;9.13;;;3.42;;
76636;SDS011;65532;52.124;5.480;2023-08-30T08:23:20;10.88;;;3.85;;
76636;SDS011;65532;52.124;5.480;2023-08-30T08:25:47;8.63;;;3.72;;
76636;SDS011;65532;52.124;5.480;2023-08-30T08:28:14;8.68;;;3.63;;
76636;SDS011;65532;52.124;5.480;2023-08-30T08:30:40;7.68;;;3.55;;
76636;SDS011;65532;52.124;5.480;2023-08-30T08:33:08;6.65;;;2.55;;
76636;SDS011;65532;52.124;5.480;2023-08-30T08:35:35;7.38;;;4.32;;
76636;SDS011;65532;52.124;5.480;2023-08-30T08:38:02;7.20;;;3.13;;
76636;SDS011;65532;52.124;5.480;2023-08-30T08:40:28;7.28;;;2.90;;
76636;SDS011;65532;52.124;5.480;2023-08-30T08:43:11;8.07;;;2.97;;
76636;SDS011;65532;52.124;5.480;2023-08-30T08:45:38;7.18;;;3.83;;
76636;SDS011;65532;52.124;5.480;2023-08-30T08:48:05;7.70;;;2.80;;
76636;SDS011;65532;52.124;5.480;2023-08-30T08:50:33;9.18;;;2.83;;
76636;SDS011;65532;52.124;5.480;2023-08-30T08:53:01;8.93;;;2.88;;
76636;SDS011;65532;52.124;5.480;2023-08-30T08:55:29;7.43;;;3.78;;
76636;SDS011;65532;52.124;5.480;2023-08-30T08:57:58;7.63;;;4.75;;
76636;SDS011;65532;52.124;5.480;2023-08-30T09:00:25;6.45;;;2.40;;
76636;SDS011;65532;52.124;5.480;2023-08-30T09:02:53;5.90;;;2.78;;
76636;SDS011;65532;52.124;5.480;2023-08-30T09:05:21;5.45;;;2.63;;
76636;SDS011;65532;52.124;5.480;2023-08-30T09:07:48;6.38;;;2.70;;
76636;SDS011;65532;52.124;5.480;2023-08-30T09:10:17;5.30;;;3.45;;
76636;SDS011;65532;52.124;5.480;2023-08-30T09:12:44;6.78;;;2.83;;
76636;SDS011;65532;52.124;5.480;2023-08-30T09:15:10;6.18;;;2.50;;
76636;SDS011;65532;52.124;5.480;2023-08-30T09:17:37;7.18;;;3.08;;
76636;SDS011;65532;52.124;5.480;2023-08-30T09:20:11;7.43;;;2.58;;
76636;SDS011;65532;52.124;5.480;2023-08-30T09:22:39;8.90;;;4.70;;
76636;SDS011;65532;52.124;5.480;2023-08-30T09:25:09;9.25;;;4.70;;
76636;SDS011;65532;52.124;5.480;2023-08-30T09:27:37;6.50;;;2.78;;
76636;SDS011;65532;52.124;5.480;2023-08-30T09:30:08;6.35;;;2.92;;
76636;SDS011;65532;52.124;5.480;2023-08-30T09:32:40;8.93;;;3.00;;
76636;SDS011;65532;52.124;5.480;2023-08-30T09:35:11;7.28;;;2.50;;
76636;SDS011;65532;52.124;5.480;2023-08-30T09:37:38;7.07;;;2.67;;
76636;SDS011;65532;52.124;5.480;2023-08-30T09:40:05;7.63;;;3.92;;
76636;SDS011;65532;52.124;5.480;2023-08-30T09:42:32;7.40;;;3.88;;
76636;SDS011;65532;52.124;5.480;2023-08-30T09:44:59;6.00;;;2.80;;
76636;SDS011;65532;52.124;5.480;2023-08-30T09:47:26;9.07;;;4.00;;
76636;SDS011;65532;52.124;5.480;2023-08-30T09:49:54;7.22;;;3.92;;
76636;SDS011;65532;52.124;5.480;2023-08-30T09:52:23;6.85;;;4.35;;
76636;SDS011;65532;52.124;5.480;2023-08-30T09:54:51;8.95;;;4.28;;
76636;SDS011;65532;52.124;5.480;2023-08-30T09:57:18;7.25;;;3.00;;
76636;SDS011;65532;52.124;5.480;2023-08-30T09:59:45;7.22;;;4.32;;
76636;SDS011;65532;52.124;5.480;2023-08-30T10:02:12;6.75;;;3.25;;
76636;SDS011;65532;52.124;5.480;2023-08-30T10:04:39;6.95;;;3.25;;
76636;SDS011;65532;52.124;5.480;2023-08-30T10:07:07;9.07;;;4.35;;
76636;SDS011;65532;52.124;5.480;2023-08-30T10:09:36;6.80;;;3.45;;
76636;SDS011;65532;52.124;5.480;2023-08-30T10:12:20;7.50;;;3.35;;
76636;SDS011;65532;52.124;5.480;2023-08-30T10:14:49;7.85;;;4.18;;
76636;SDS011;65532;52.124;5.480;2023-08-30T10:17:17;11.25;;;4.47;;
76636;SDS011;65532;52.124;5.480;2023-08-30T10:19:47;9.35;;;3.55;;
76636;SDS011;65532;52.124;5.480;2023-08-30T10:22:15;8.05;;;3.83;;
76636;SDS011;65532;52.124;5.480;2023-08-30T10:27:34;9.80;;;5.60;;
76636;SDS011;65532;52.124;5.480;2023-08-30T10:30:04;8.50;;;4.70;;
76636;SDS011;65532;52.124;5.480;2023-08-30T10:32:37;7.95;;;4.30;;
76636;SDS011;65532;52.124;5.480;2023-08-30T10:35:05;7.70;;;3.67;;
76636;SDS011;65532;52.124;5.480;2023-08-30T10:37:32;9.32;;;4.90;;
76636;SDS011;65532;52.124;5.480;2023-08-30T10:40:02;10.90;;;5.43;;
76636;SDS011;65532;52.124;5.480;2023-08-30T10:42:30;8.10;;;4.40;;
76636;SDS011;65532;52.124;5.480;2023-08-30T10:44:57;8.63;;;4.38;;
76636;SDS011;65532;52.124;5.480;2023-08-30T10:47:39;7.13;;;4.25;;
76636;SDS011;65532;52.124;5.480;2023-08-30T10:50:08;5.60;;;3.22;;
76636;SDS011;65532;52.124;5.480;2023-08-30T10:52:39;5.88;;;3.83;;
76636;SDS011;65532;52.124;5.480;2023-08-30T10:57:34;7.85;;;3.35;;
76636;SDS011;65532;52.124;5.480;2023-08-30T11:02:50;6.55;;;2.65;;
76636;SDS011;65532;52.124;5.480;2023-08-30T11:05:20;5.78;;;3.72;;
76636;SDS011;65532;52.124;5.480;2023-08-30T11:07:49;7.07;;;2.55;;
76636;SDS011;65532;52.124;5.480;2023-08-30T11:10:17;4.97;;;2.78;;
76636;SDS011;65532;52.124;5.480;2023-08-30T11:12:45;5.28;;;3.15;;
76636;SDS011;65532;52.124;5.480;2023-08-30T11:15:13;4.30;;;2.80;;
76636;SDS011;65532;52.124;5.480;2023-08-30T11:17:44;6.10;;;2.58;;
76636;SDS011;65532;52.124;5.480;2023-08-30T11:20:12;4.38;;;1.50;;
76636;SDS011;65532;52.124;5.480;2023-08-30T11:22:47;5.03;;;1.15;;
76636;SDS011;65532;52.124;5.480;2023-08-30T11:25:15;4.68;;;1.58;;
76636;SDS011;65532;52.124;5.480;2023-08-30T11:27:43;4.88;;;1.00;;
76636;SDS011;65532;52.124;5.480;2023-08-30T11:30:10;5.05;;;2.13;;
76636;SDS011;65532;52.124;5.480;2023-08-30T11:32:41;3.50;;;1.30;;
76636;SDS011;65532;52.124;5.480;2023-08-30T11:35:11;3.00;;;0.90;;
76636;SDS011;65532;52.124;5.480;2023-08-30T11:37:39;3.78;;;2.13;;
76636;SDS011;65532;52.124;5.480;2023-08-30T11:40:07;7.72;;;0.82;;
76636;SDS011;65532;52.124;5.480;2023-08-30T11:42:34;5.32;;;1.52;;
76636;SDS011;65532;52.124;5.480;2023-08-30T11:45:00;3.45;;;0.90;;
76636;SDS011;65532;52.124;5.480;2023-08-30T11:49:57;11.63;;;2.33;;
76636;SDS011;65532;52.124;5.480;2023-08-30T11:52:25;6.45;;;1.23;;
76636;SDS011;65532;52.124;5.480;2023-08-30T11:54:52;7.68;;;1.77;;
76636;SDS011;65532;52.124;5.480;2023-08-30T11:57:20;7.22;;;1.23;;
76636;SDS011;65532;52.124;5.480;2023-08-30T11:59:49;4.90;;;0.95;;
76636;SDS011;65532;52.124;5.480;2023-08-30T12:02:17;7.18;;;1.73;;
76636;SDS011;65532;52.124;5.480;2023-08-30T12:04:45;6.75;;;1.27;;
76636;SDS011;65532;52.124;5.480;2023-08-30T12:07:22;5.65;;;1.17;;
76636;SDS011;65532;52.124;5.480;2023-08-30T12:09:50;5.22;;;1.15;;
76636;SDS011;65532;52.124;5.480;2023-08-30T12:12:16;4.65;;;1.23;;
76636;SDS011;65532;52.124;5.480;2023-08-30T12:14:43;5.55;;;1.85;;
76636;SDS011;65532;52.124;5.480;2023-08-30T12:17:10;4.97;;;1.08;;
76636;SDS011;65532;52.124;5.480;2023-08-30T12:19:39;8.65;;;1.38;;
76636;SDS011;65532;52.124;5.480;2023-08-30T12:22:08;7.10;;;1.35;;
76636;SDS011;65532;52.124;5.480;2023-08-30T12:24:44;4.60;;;1.02;;
76636;SDS011;65532;52.124;5.480;2023-08-30T12:27:12;6.15;;;0.90;;
76636;SDS011;65532;52.124;5.480;2023-08-30T12:29:39;3.47;;;0.63;;
76636;SDS011;65532;52.124;5.480;2023-08-30T12:32:06;6.25;;;1.10;;
76636;SDS011;65532;52.124;5.480;2023-08-30T12:34:34;5.47;;;1.08;;
76636;SDS011;65532;52.124;5.480;2023-08-30T12:37:01;5.95;;;1.25;;
76636;SDS011;65532;52.124;5.480;2023-08-30T12:39:30;6.95;;;1.73;;
76636;SDS011;65532;52.124;5.480;2023-08-30T12:41:57;5.90;;;0.75;;
76636;SDS011;65532;52.124;5.480;2023-08-30T12:44:24;7.60;;;1.33;;
76636;SDS011;65532;52.124;5.480;2023-08-30T12:46:50;8.90;;;0.95;;
76636;SDS011;65532;52.124;5.480;2023-08-30T12:49:17;5.10;;;0.82;;
76636;SDS011;65532;52.124;5.480;2023-08-30T12:51:43;5.15;;;1.23;;
76636;SDS011;65532;52.124;5.480;2023-08-30T12:54:10;5.15;;;1.15;;
76636;SDS011;65532;52.124;5.480;2023-08-30T12:56:37;5.05;;;1.50;;
76636;SDS011;65532;52.124;5.480;2023-08-30T12:59:03;4.10;;;1.02;;
76636;SDS011;65532;52.124;5.480;2023-08-30T13:01:30;5.03;;;0.85;;
76636;SDS011;65532;52.124;5.480;2023-08-30T13:03:56;6.63;;;0.65;;
76636;SDS011;65532;52.124;5.480;2023-08-30T13:06:23;5.32;;;0.38;;
76636;SDS011;65532;52.124;5.480;2023-08-30T13:08:50;6.20;;;1.23;;
76636;SDS011;65532;52.124;5.480;2023-08-30T13:11:16;4.00;;;0.75;;
76636;SDS011;65532;52.124;5.480;2023-08-30T13:13:43;6.50;;;1.45;;
76636;SDS011;65532;52.124;5.480;2023-08-30T13:16:09;3.88;;;0.60;;
76636;SDS011;65532;52.124;5.480;2023-08-30T13:18:36;5.85;;;0.98;;
76636;SDS011;65532;52.124;5.480;2023-08-30T13:21:02;3.50;;;0.52;;
76636;SDS011;65532;52.124;5.480;2023-08-30T13:23:30;4.88;;;0.73;;
76636;SDS011;65532;52.124;5.480;2023-08-30T13:25:57;3.60;;;0.93;;
76636;SDS011;65532;52.124;5.480;2023-08-30T13:28:23;5.13;;;1.70;;
76636;SDS011;65532;52.124;5.480;2023-08-30T13:30:50;3.05;;;1.00;;
76636;SDS011;65532;52.124;5.480;2023-08-30T13:33:18;2.88;;;0.43;;
76636;SDS011;65532;52.124;5.480;2023-08-30T13:35:48;7.53;;;1.40;;
76636;SDS011;65532;52.124;5.480;2023-08-30T13:38:17;5.15;;;1.25;;
76636;SDS011;65532;52.124;5.480;2023-08-30T13:40:44;3.95;;;0.95;;
76636;SDS011;65532;52.124;5.480;2023-08-30T13:43:11;4.47;;;1.10;;
76636;SDS011;65532;52.124;5.480;2023-08-30T13:45:38;8.90;;;1.80;;
76636;SDS011;65532;52.124;5.480;2023-08-30T13:48:04;4.95;;;1.17;;
76636;SDS011;65532;52.124;5.480;2023-08-30T13:50:31;7.43;;;0.93;;
76636;SDS011;65532;52.124;5.480;2023-08-30T13:52:58;8.20;;;0.75;;
76636;SDS011;65532;52.124;5.480;2023-08-30T13:55:25;2.17;;;0.60;;
76636;SDS011;65532;52.124;5.480;2023-08-30T13:57:51;3.22;;;0.93;;
76636;SDS011;65532;52.124;5.480;2023-08-30T14:00:18;3.28;;;0.40;;
76636;SDS011;65532;52.124;5.480;2023-08-30T14:02:45;3.00;;;0.60;;
76636;SDS011;65532;52.124;5.480;2023-08-30T14:05:11;5.03;;;1.33;;
76636;SDS011;65532;52.124;5.480;2023-08-30T14:07:38;4.25;;;0.50;;
76636;SDS011;65532;52.124;5.480;2023-08-30T14:10:04;5.63;;;0.85;;
76636;SDS011;65532;52.124;5.480;2023-08-30T14:12:32;3.33;;;1.00;;
76636;SDS011;65532;52.124;5.480;2023-08-30T14:14:59;3.20;;;1.10;;
76636;SDS011;65532;52.124;5.480;2023-08-30T14:17:26;2.88;;;0.85;;
76636;SDS011;65532;52.124;5.480;2023-08-30T14:19:52;4.45;;;0.70;;
76636;SDS011;65532;52.124;5.480;2023-08-30T14:22:19;3.20;;;0.70;;
76636;SDS011;65532;52.124;5.480;2023-08-30T14:24:46;4.15;;;0.50;;
76636;SDS011;65532;52.124;5.480;2023-08-30T14:27:34;5.05;;;0.88;;
76636;SDS011;65532;52.124;5.480;2023-08-30T14:30:00;4.22;;;1.33;;
76636;SDS011;65532;52.124;5.480;2023-08-30T14:32:27;6.78;;;0.35;;
76636;SDS011;65532;52.124;5.480;2023-08-30T14:34:54;3.90;;;0.52;;
76636;SDS011;65532;52.124;5.480;2023-08-30T14:37:20;2.88;;;0.47;;
76636;SDS011;65532;52.124;5.480;2023-08-30T14:39:47;4.07;;;0.47;;
76636;SDS011;65532;52.124;5.480;2023-08-30T14:42:14;20.90;;;8.27;;
76636;SDS011;65532;52.124;5.480;2023-08-30T14:44:40;6.13;;;1.23;;
76636;SDS011;65532;52.124;5.480;2023-08-30T14:47:07;4.35;;;0.63;;
76636;SDS011;65532;52.124;5.480;2023-08-30T14:49:34;3.08;;;1.33;;
76636;SDS011;65532;52.124;5.480;2023-08-30T14:52:00;3.42;;;1.52;;
76636;SDS011;65532;52.124;5.480;2023-08-30T14:54:27;2.42;;;1.05;;
76636;SDS011;65532;52.124;5.480;2023-08-30T14:56:53;2.05;;;0.30;;
76636;SDS011;65532;52.124;5.480;2023-08-30T14:59:20;3.05;;;0.30;;
76636;SDS011;65532;52.124;5.480;2023-08-30T15:01:46;2.97;;;0.45;;